Main page
METAR-TAF:

METAR-TAF

Airports :

Rarotonga International Airport

Rarotonga, Cook Islands

latitude: 21-12S, longitude: 159-49W, elevation: 7 m

Current weather observation

The report was made 35 minutes ago, at 02:30 UTC
Wind 6 kt from the East
Temperature 26°C
Humidity 89%
Pressure 1008 hPa
Visibility 10 km or more
light rain

METAR: NCRG 220230Z AUTO 08006KT 9999 -RA SCT030/// BKN039/// BKN048/// 26/24 Q1008

Time: 17:05 (03:05 UTC)

Forecast

The report was made 3 hours and 37 minutes ago, at 23:28 UTC
Forecast valid from 22 at 00 UTC to 22 at 24 UTC
Wind 8 kt from the West
Visibility 10 km or more
Broken clouds at a height of 1200 ft
Broken clouds at a height of 1700 ft
light rain showers
Temporary
from 22 at 00 UTC to 22 at 24 UTC
Visibility: 3000 m
Broken clouds at a height of 1500 ft
Few clouds at a height of 1700 ft, Cumulonimbus.
thunderstorm, rain

TAF: NCRG 212328Z 2200/2224 28008KT 9999 -SHRA BKN012 BKN017 TEMPO 2200/2224 3000 TSRA BKN015 FEW017CB

Weather observations and forecasts of more than 4000 airports (METAR and TAF reports).

The available stations are represented by yellow and red dots on the map.

Hover mouse over dot to see the name of the station.

Then click to see weather observations and forecasts.

To change the map : click on the green buttons with a black cross to zoom in, on the green button with a dash to zoom out, or on the green arrows for adjacent maps.


METAR-TAF: